createdAt,value
2023-08-08T00:01:09.740Z,17.30
2023-08-08T00:03:36.804Z,17.30
2023-08-08T00:06:03.967Z,17.20
2023-08-08T00:08:34.250Z,17.20
2023-08-08T00:11:01.225Z,17.20
2023-08-08T00:13:29.656Z,17.20
2023-08-08T00:15:57.432Z,17.20
2023-08-08T00:18:24.485Z,17.10
2023-08-08T00:20:51.709Z,17.10
2023-08-08T00:23:18.630Z,17.10
2023-08-08T00:25:51.170Z,17.10
2023-08-08T00:28:18.872Z,17.10
2023-08-08T00:30:46.070Z,17.10
2023-08-08T00:33:13.176Z,17.00
2023-08-08T00:35:40.114Z,17.00
2023-08-08T00:38:07.145Z,17.00
2023-08-08T00:43:03.328Z,17.10
2023-08-08T00:45:30.288Z,17.10
2023-08-08T00:47:57.495Z,17.10
2023-08-08T00:50:24.552Z,17.10
2023-08-08T00:52:52.776Z,17.20
2023-08-08T00:55:22.050Z,17.10
2023-08-08T00:57:49.945Z,17.10
2023-08-08T01:00:18.655Z,17.10
2023-08-08T01:02:47.103Z,17.10
2023-08-08T01:05:15.734Z,17.10
2023-08-08T01:08:05.949Z,17.10
2023-08-08T01:10:41.957Z,17.00
2023-08-08T01:13:19.299Z,17.00
2023-08-08T01:15:49.028Z,17.00
2023-08-08T01:18:17.185Z,17.20
2023-08-08T01:20:47.952Z,16.90
2023-08-08T01:30:44.921Z,16.80
2023-08-08T01:33:13.017Z,16.80
2023-08-08T01:35:42.949Z,16.80
2023-08-08T01:38:34.910Z,16.80
2023-08-08T01:41:03.037Z,16.80
2023-08-08T01:43:31.967Z,16.80
2023-08-08T01:46:00.562Z,16.80
2023-08-08T01:48:29.577Z,16.80
2023-08-08T01:50:56.410Z,16.80
2023-08-08T01:53:23.400Z,16.80
2023-08-08T01:55:50.280Z,16.80
2023-08-08T01:58:17.243Z,16.90
2023-08-08T02:00:45.285Z,16.80
2023-08-08T02:03:12.533Z,16.80
2023-08-08T02:05:39.587Z,16.80
2023-08-08T02:08:06.762Z,16.80
2023-08-08T02:10:33.657Z,16.80
2023-08-08T02:13:00.909Z,16.70
2023-08-08T02:15:27.916Z,16.80
2023-08-08T02:17:56.520Z,16.70
2023-08-08T02:20:23.453Z,16.70
2023-08-08T02:22:50.661Z,16.60
2023-08-08T02:25:19.295Z,16.60
2023-08-08T02:27:46.188Z,16.60
2023-08-08T02:30:17.166Z,16.50
2023-08-08T02:32:44.368Z,16.50
2023-08-08T02:35:11.584Z,16.40
2023-08-08T02:37:39.587Z,16.40
2023-08-08T02:40:07.628Z,16.40
2023-08-08T02:42:34.712Z,16.30
2023-08-08T02:45:02.776Z,16.30
2023-08-08T02:47:30.543Z,16.20
2023-08-08T02:49:58.483Z,16.20
2023-08-08T02:52:25.440Z,16.20
2023-08-08T02:54:52.321Z,16.10
2023-08-08T02:57:20.808Z,16.00
2023-08-08T02:59:50.459Z,16.10
2023-08-08T03:02:18.385Z,16.10
2023-08-08T03:04:45.344Z,16.10
2023-08-08T03:07:12.242Z,16.00
2023-08-08T03:09:39.091Z,16.10
2023-08-08T03:12:06.640Z,16.00
2023-08-08T03:14:34.805Z,16.00
2023-08-08T03:17:01.945Z,16.00
2023-08-08T03:19:30.427Z,16.00
2023-08-08T03:21:57.722Z,15.90
2023-08-08T03:24:25.139Z,15.90
2023-08-08T03:26:52.364Z,15.90
2023-08-08T03:29:19.286Z,15.80
2023-08-08T03:31:46.495Z,15.80
2023-08-08T03:34:15.432Z,15.80
2023-08-08T03:36:43.666Z,15.70
2023-08-08T03:39:10.533Z,15.70
2023-08-08T03:41:38.157Z,15.70
2023-08-08T03:44:05.519Z,15.70
2023-08-08T03:46:32.498Z,15.60
2023-08-08T03:49:00.167Z,15.60
2023-08-08T03:51:27.159Z,15.60
2023-08-08T03:53:54.017Z,15.50
2023-08-08T03:56:20.936Z,15.60
2023-08-08T03:58:48.177Z,15.50
2023-08-08T04:01:15.120Z,15.60
2023-08-08T04:03:43.055Z,15.60
2023-08-08T04:06:10.049Z,15.60
2023-08-08T04:08:36.900Z,15.60
2023-08-08T04:11:04.011Z,15.50
2023-08-08T04:13:33.362Z,15.60
2023-08-08T04:16:00.518Z,15.60
2023-08-08T04:18:27.457Z,15.60
2023-08-08T04:20:55.409Z,15.60
2023-08-08T04:23:24.258Z,15.60
2023-08-08T04:25:51.104Z,15.60
2023-08-08T04:28:19.411Z,15.50
2023-08-08T04:30:46.268Z,15.50
2023-08-08T04:33:13.262Z,15.60
2023-08-08T04:35:41.249Z,15.60
2023-08-08T04:38:08.213Z,15.60
2023-08-08T04:40:39.328Z,15.60
2023-08-08T04:43:06.452Z,15.60
2023-08-08T04:45:34.261Z,15.50
2023-08-08T04:48:03.329Z,15.60
2023-08-08T04:50:30.263Z,15.60
2023-08-08T04:52:57.135Z,15.60
2023-08-08T04:55:25.326Z,15.50
2023-08-08T04:57:52.447Z,15.60
2023-08-08T05:00:20.359Z,15.60
2023-08-08T05:02:47.978Z,15.60
2023-08-08T05:05:15.292Z,15.60
2023-08-08T05:07:43.936Z,15.70
2023-08-08T05:10:11.017Z,15.60
2023-08-08T05:12:37.902Z,15.70
2023-08-08T05:15:05.357Z,15.60
2023-08-08T05:17:36.466Z,15.70
2023-08-08T05:20:05.210Z,15.70
2023-08-08T05:22:32.221Z,15.80
2023-08-08T05:25:00.444Z,15.80
2023-08-08T05:27:28.418Z,15.80
2023-08-08T05:29:55.314Z,15.90
2023-08-08T05:32:22.250Z,15.90
2023-08-08T05:34:50.557Z,16.00
2023-08-08T05:37:19.109Z,16.10
2023-08-08T05:39:48.507Z,16.20
2023-08-08T05:42:16.548Z,16.40
2023-08-08T05:44:44.805Z,16.50
2023-08-08T05:47:14.559Z,16.60
2023-08-08T05:49:45.230Z,16.70
2023-08-08T05:52:13.454Z,16.80
2023-08-08T05:54:40.459Z,17.00
2023-08-08T05:57:08.525Z,17.10
2023-08-08T06:02:06.759Z,17.40
2023-08-08T06:04:33.864Z,17.40
2023-08-08T06:07:03.018Z,17.60
2023-08-08T06:09:29.996Z,17.70
2023-08-08T06:11:56.913Z,17.90
2023-08-08T06:14:24.290Z,18.00
2023-08-08T06:16:53.299Z,18.00
2023-08-08T06:19:20.152Z,18.20
2023-08-08T06:21:47.659Z,18.40
2023-08-08T06:24:14.522Z,18.40
2023-08-08T06:26:41.665Z,18.40
2023-08-08T06:29:08.608Z,18.40
2023-08-08T06:31:37.874Z,18.40
2023-08-08T06:34:04.890Z,18.30
2023-08-08T06:36:32.795Z,18.30
2023-08-08T06:39:01.362Z,18.50
2023-08-08T06:41:29.659Z,19.20
2023-08-08T06:43:56.820Z,18.80
2023-08-08T06:46:25.644Z,19.00
2023-08-08T06:48:58.549Z,19.20
2023-08-08T06:51:26.436Z,19.30
2023-08-08T06:53:53.966Z,19.50
2023-08-08T06:56:20.840Z,19.60
2023-08-08T06:58:49.418Z,19.70
2023-08-08T07:01:16.709Z,19.90
2023-08-08T07:03:44.913Z,20.00
2023-08-08T07:06:12.140Z,20.20
2023-08-08T07:08:40.831Z,20.20
2023-08-08T07:11:09.080Z,20.30
2023-08-08T07:13:36.636Z,20.40
2023-08-08T07:18:31.940Z,20.60
2023-08-08T07:20:59.603Z,20.90
2023-08-08T07:23:27.532Z,20.90
2023-08-08T07:25:54.444Z,21.10
2023-08-08T07:28:21.460Z,21.20
2023-08-08T07:30:48.308Z,21.20
2023-08-08T07:33:15.321Z,21.30
2023-08-08T07:35:42.238Z,21.30
2023-08-08T07:38:09.638Z,21.30
2023-08-08T07:40:37.421Z,21.20
2023-08-08T07:43:04.440Z,21.20
2023-08-08T07:45:34.262Z,21.30
2023-08-08T07:48:02.255Z,21.30
2023-08-08T07:50:29.230Z,21.30
2023-08-08T07:52:56.161Z,21.30
2023-08-08T07:55:23.054Z,21.20
2023-08-08T07:57:49.998Z,21.20
2023-08-08T08:00:19.860Z,21.20
2023-08-08T08:02:47.634Z,21.10
2023-08-08T08:05:15.596Z,21.20
2023-08-08T08:07:42.576Z,21.20
2023-08-08T08:10:11.299Z,21.40
2023-08-08T08:15:06.745Z,21.90
2023-08-08T08:20:06.589Z,22.20
2023-08-08T08:22:34.374Z,22.20
2023-08-08T08:25:01.499Z,22.30
2023-08-08T08:27:28.402Z,22.40
2023-08-08T08:29:56.107Z,22.20
2023-08-08T08:32:22.941Z,22.10
2023-08-08T08:34:49.837Z,22.10
2023-08-08T08:37:17.586Z,22.10
2023-08-08T08:39:44.443Z,22.10
2023-08-08T08:42:16.570Z,22.10
2023-08-08T08:44:45.049Z,22.20
2023-08-08T08:47:15.756Z,22.30
2023-08-08T08:49:44.685Z,22.20
2023-08-08T08:52:13.227Z,22.20
2023-08-08T08:54:40.320Z,22.20
2023-08-08T08:57:07.168Z,22.30
2023-08-08T08:59:34.000Z,22.10
2023-08-08T09:02:02.324Z,22.30
2023-08-08T09:04:31.695Z,22.20
2023-08-08T09:06:58.890Z,22.10
2023-08-08T09:09:25.792Z,22.10
2023-08-08T09:11:56.577Z,22.20
2023-08-08T09:14:25.910Z,22.20
2023-08-08T09:16:54.517Z,22.20
2023-08-08T09:19:25.077Z,22.10
2023-08-08T09:21:54.287Z,22.10
2023-08-08T09:24:21.974Z,22.00
2023-08-08T09:26:52.542Z,22.00
2023-08-08T09:29:24.766Z,21.90
2023-08-08T09:31:51.994Z,21.90
2023-08-08T09:34:18.889Z,22.00
2023-08-08T09:36:46.086Z,21.90
2023-08-08T09:39:14.048Z,21.90
2023-08-08T09:41:40.987Z,21.90
2023-08-08T09:44:11.216Z,22.00
2023-08-08T09:46:39.075Z,22.10
2023-08-08T09:49:07.937Z,22.00
2023-08-08T09:51:35.356Z,22.00
2023-08-08T09:54:03.061Z,22.00
2023-08-08T09:56:30.764Z,21.90
2023-08-08T09:58:59.659Z,21.90
2023-08-08T10:01:28.433Z,21.90
2023-08-08T10:03:55.450Z,22.00
2023-08-08T10:06:22.533Z,22.00
2023-08-08T10:08:51.194Z,22.00
2023-08-08T10:11:21.301Z,22.00
2023-08-08T10:13:50.745Z,22.00
2023-08-08T10:16:19.649Z,22.10
2023-08-08T10:19:09.835Z,22.10
2023-08-08T10:21:39.527Z,22.30
2023-08-08T10:24:10.371Z,22.30
2023-08-08T10:26:58.891Z,22.30
2023-08-08T10:29:27.331Z,22.30
2023-08-08T10:32:23.258Z,22.30
2023-08-08T10:34:50.996Z,22.20
2023-08-08T10:37:19.174Z,22.20
2023-08-08T10:39:59.264Z,22.20
2023-08-08T10:42:28.620Z,22.20
2023-08-08T10:45:04.307Z,22.30
2023-08-08T10:47:36.752Z,22.20
2023-08-08T10:50:08.812Z,22.30
2023-08-08T10:52:53.409Z,22.30
2023-08-08T10:55:25.971Z,22.30
2023-08-08T10:58:12.438Z,22.30
2023-08-08T11:00:41.224Z,22.20
2023-08-08T11:03:10.395Z,22.20
2023-08-08T11:05:39.012Z,22.10
2023-08-08T11:08:09.614Z,22.00
2023-08-08T11:10:38.611Z,22.00
2023-08-08T11:13:07.742Z,22.00
2023-08-08T11:15:35.788Z,21.90
2023-08-08T11:18:05.164Z,21.90
2023-08-08T11:20:38.090Z,22.00
2023-08-08T11:23:07.241Z,22.00
2023-08-08T11:25:34.229Z,22.00
2023-08-08T11:28:01.334Z,22.00
2023-08-08T11:30:31.270Z,22.10
2023-08-08T11:35:30.922Z,22.10
2023-08-08T11:37:59.465Z,22.10
2023-08-08T11:40:28.096Z,22.10
2023-08-08T11:42:56.599Z,22.00
2023-08-08T11:45:24.348Z,22.00
2023-08-08T11:47:52.668Z,22.00
2023-08-08T11:50:24.237Z,21.90
2023-08-08T11:52:55.889Z,21.80
2023-08-08T11:55:29.133Z,21.80
2023-08-08T11:57:58.371Z,21.70
2023-08-08T12:00:30.086Z,21.70
2023-08-08T12:02:57.460Z,21.60
2023-08-08T12:05:25.288Z,21.70
2023-08-08T12:07:56.095Z,21.60
2023-08-08T12:10:24.288Z,21.60
2023-08-08T12:12:59.752Z,21.60
2023-08-08T12:15:50.266Z,21.60
2023-08-08T12:18:21.896Z,21.60
2023-08-08T12:20:48.780Z,21.70
2023-08-08T12:23:16.386Z,21.70
2023-08-08T12:25:44.312Z,21.70
2023-08-08T12:28:12.280Z,21.70
2023-08-08T12:30:40.513Z,21.70
2023-08-08T12:33:07.462Z,21.70
2023-08-08T12:35:34.337Z,21.70
2023-08-08T12:38:01.259Z,21.70
2023-08-08T12:40:28.299Z,21.60
2023-08-08T12:42:56.726Z,21.60
2023-08-08T12:45:24.085Z,21.60
2023-08-08T12:47:52.135Z,21.60
2023-08-08T12:50:19.228Z,21.50
2023-08-08T12:52:46.172Z,21.40
2023-08-08T12:55:13.224Z,21.40
2023-08-08T12:57:40.496Z,21.40
2023-08-08T13:00:10.023Z,21.50
2023-08-08T13:02:38.546Z,21.40
2023-08-08T13:05:08.631Z,21.40
2023-08-08T13:07:35.497Z,21.40
2023-08-08T13:10:03.760Z,21.40
2023-08-08T13:12:30.675Z,21.40
2023-08-08T13:14:57.980Z,21.40
2023-08-08T13:17:26.179Z,21.40
2023-08-08T13:19:53.457Z,21.40
2023-08-08T13:22:20.358Z,21.30
2023-08-08T13:24:48.510Z,21.30
2023-08-08T13:27:15.425Z,21.40
2023-08-08T13:29:43.722Z,21.30
2023-08-08T13:32:12.057Z,21.30
2023-08-08T13:34:41.316Z,21.30
2023-08-08T13:37:08.342Z,21.40
2023-08-08T13:39:36.747Z,21.40
2023-08-08T13:42:05.094Z,21.30
2023-08-08T13:44:33.113Z,21.30
2023-08-08T13:46:59.981Z,21.40
2023-08-08T13:49:27.597Z,21.30
2023-08-08T13:51:55.205Z,21.30
2023-08-08T13:54:23.520Z,21.30
2023-08-08T13:56:50.525Z,21.20
2023-08-08T13:59:18.693Z,21.10
2023-08-08T14:01:47.179Z,21.20
2023-08-08T14:04:14.461Z,21.10
2023-08-08T14:06:42.481Z,21.10
2023-08-08T14:09:11.147Z,21.20
2023-08-08T14:11:38.443Z,21.20
2023-08-08T14:14:05.313Z,21.20
2023-08-08T14:16:32.438Z,21.10
2023-08-08T14:19:00.816Z,21.10
2023-08-08T14:21:28.682Z,21.00
2023-08-08T14:23:56.306Z,21.00
2023-08-08T14:26:23.220Z,21.00
2023-08-08T14:28:51.093Z,21.00
2023-08-08T14:31:18.010Z,21.10
2023-08-08T14:33:45.121Z,21.00
2023-08-08T14:36:12.014Z,21.10
2023-08-08T14:38:39.043Z,21.10
2023-08-08T14:41:06.014Z,21.00
2023-08-08T14:43:34.275Z,21.00
2023-08-08T14:46:01.265Z,21.10
2023-08-08T14:48:28.361Z,21.10
2023-08-08T14:50:57.048Z,21.20
2023-08-08T14:53:23.988Z,21.20
2023-08-08T14:55:51.168Z,21.20
2023-08-08T14:58:19.329Z,21.20
2023-08-08T15:00:47.564Z,21.20
2023-08-08T15:03:15.948Z,21.30
2023-08-08T15:05:44.570Z,21.30
2023-08-08T15:08:11.561Z,21.30
2023-08-08T15:10:38.432Z,21.30
2023-08-08T15:13:07.504Z,21.40
2023-08-08T15:15:34.874Z,21.30
2023-08-08T15:18:01.987Z,21.30
2023-08-08T15:20:28.967Z,21.20
2023-08-08T15:22:55.848Z,21.20
2023-08-08T15:25:22.732Z,21.20
2023-08-08T15:27:49.598Z,21.20
2023-08-08T15:30:18.553Z,21.20
2023-08-08T15:32:46.516Z,21.20
2023-08-08T15:35:13.387Z,21.20
2023-08-08T15:37:40.724Z,21.30
2023-08-08T15:40:08.273Z,21.20
2023-08-08T15:42:35.358Z,21.20
2023-08-08T15:45:02.589Z,21.20
2023-08-08T15:47:30.745Z,21.20
2023-08-08T15:49:58.804Z,21.20
2023-08-08T15:52:25.947Z,21.10
2023-08-08T15:54:52.902Z,21.10
2023-08-08T15:57:21.122Z,21.10
2023-08-08T15:59:49.401Z,21.10
2023-08-08T16:02:19.132Z,21.10
2023-08-08T16:04:46.451Z,21.00
2023-08-08T16:07:14.006Z,21.00
2023-08-08T16:09:42.664Z,21.10
2023-08-08T16:12:11.429Z,21.10
2023-08-08T16:14:38.548Z,21.10
2023-08-08T16:17:05.554Z,21.10
2023-08-08T16:19:32.514Z,21.10
2023-08-08T16:22:01.802Z,21.10
2023-08-08T16:24:29.684Z,21.10
2023-08-08T16:26:56.488Z,21.10
2023-08-08T16:29:23.384Z,21.10
2023-08-08T16:31:51.305Z,21.10
2023-08-08T16:34:18.551Z,21.20
2023-08-08T16:36:45.791Z,21.20
2023-08-08T16:39:18.718Z,21.20
2023-08-08T16:41:48.290Z,21.20
2023-08-08T16:44:16.564Z,21.30
2023-08-08T16:46:43.787Z,21.20
2023-08-08T16:49:11.794Z,21.20
2023-08-08T16:51:38.671Z,21.20
2023-08-08T16:54:05.809Z,21.20
2023-08-08T16:56:32.831Z,21.20
2023-08-08T16:58:59.998Z,21.00
2023-08-08T17:01:26.928Z,21.20
2023-08-08T17:03:54.267Z,21.20
2023-08-08T17:06:23.293Z,21.20
2023-08-08T17:08:50.210Z,21.20
2023-08-08T17:11:17.813Z,21.10
2023-08-08T17:13:44.972Z,21.20
2023-08-08T17:16:11.936Z,21.20
2023-08-08T17:18:38.865Z,21.30
2023-08-08T17:21:07.233Z,21.20
2023-08-08T17:23:34.092Z,21.20
2023-08-08T17:26:02.203Z,21.20
2023-08-08T17:28:29.110Z,21.20
2023-08-08T17:30:56.748Z,21.20
2023-08-08T17:33:24.267Z,21.20
2023-08-08T17:35:51.174Z,21.20
2023-08-08T17:38:18.048Z,21.20
2023-08-08T17:40:47.479Z,21.20
2023-08-08T17:43:14.377Z,21.20
2023-08-08T17:45:41.244Z,21.20
2023-08-08T17:48:08.255Z,21.20
2023-08-08T17:50:35.429Z,21.20
2023-08-08T17:53:03.091Z,21.10
2023-08-08T17:55:30.716Z,21.10
2023-08-08T17:57:59.112Z,21.10
2023-08-08T18:00:26.202Z,21.00
2023-08-08T18:02:53.122Z,21.00
2023-08-08T18:05:20.123Z,21.00
2023-08-08T18:07:47.950Z,21.00
2023-08-08T18:10:14.964Z,21.10
2023-08-08T18:12:43.613Z,21.00
2023-08-08T18:15:11.003Z,21.00
2023-08-08T18:17:37.972Z,21.00
2023-08-08T18:20:09.059Z,21.00
2023-08-08T18:22:37.004Z,21.00
2023-08-08T18:25:04.546Z,21.00
2023-08-08T18:27:35.444Z,20.90
2023-08-08T18:30:02.496Z,20.90
2023-08-08T18:32:29.504Z,20.90
2023-08-08T18:34:56.951Z,20.90
2023-08-08T18:37:24.140Z,20.90
2023-08-08T18:39:52.437Z,20.90
2023-08-08T18:42:20.628Z,20.90
2023-08-08T18:44:47.664Z,20.90
2023-08-08T18:47:16.894Z,20.80
2023-08-08T18:49:44.857Z,20.80
2023-08-08T18:52:14.157Z,20.80
2023-08-08T18:54:41.042Z,20.80
2023-08-08T18:57:07.916Z,20.80
2023-08-08T18:59:34.954Z,20.80
2023-08-08T19:02:03.559Z,20.80
2023-08-08T19:04:30.542Z,20.70
2023-08-08T19:06:57.475Z,20.70
2023-08-08T19:09:24.602Z,20.70
2023-08-08T19:11:52.597Z,20.70
2023-08-08T19:14:19.490Z,20.70
2023-08-08T19:16:46.427Z,20.70
2023-08-08T19:19:14.342Z,20.70
2023-08-08T19:21:43.493Z,20.70
2023-08-08T19:24:10.604Z,20.70
2023-08-08T19:26:37.624Z,20.70
2023-08-08T19:29:06.830Z,20.70
2023-08-08T19:31:34.112Z,20.70
2023-08-08T19:34:07.061Z,20.70
2023-08-08T19:36:35.952Z,20.70
2023-08-08T19:39:03.348Z,20.70
2023-08-08T19:41:30.236Z,20.70
2023-08-08T19:43:58.523Z,20.70
2023-08-08T19:46:25.544Z,20.70
2023-08-08T19:48:54.891Z,20.60
2023-08-08T19:51:21.756Z,20.60
2023-08-08T19:53:49.810Z,20.60
2023-08-08T19:56:18.005Z,20.50
2023-08-08T19:58:46.029Z,20.50
2023-08-08T20:01:12.935Z,20.50
2023-08-08T20:03:42.491Z,20.40
2023-08-08T20:06:09.372Z,20.40
2023-08-08T20:08:36.239Z,20.40
2023-08-08T20:11:06.749Z,20.30
2023-08-08T20:13:33.905Z,20.30
2023-08-08T20:16:00.941Z,20.30
2023-08-08T20:18:29.284Z,20.30
2023-08-08T20:20:56.186Z,20.30
2023-08-08T20:23:23.122Z,20.30
2023-08-08T20:25:52.607Z,20.20
2023-08-08T20:28:19.580Z,20.20
2023-08-08T20:30:48.338Z,20.20
2023-08-08T20:33:15.342Z,20.20
2023-08-08T20:35:43.351Z,20.20
2023-08-08T20:38:11.465Z,20.10
2023-08-08T20:40:39.547Z,20.10
2023-08-08T20:43:06.379Z,20.10
2023-08-08T20:45:33.609Z,20.00
2023-08-08T20:48:00.504Z,20.00
2023-08-08T20:50:27.522Z,20.00
2023-08-08T20:52:54.353Z,20.00
2023-08-08T20:55:22.273Z,19.90
2023-08-08T20:57:50.502Z,19.80
2023-08-08T21:00:19.298Z,19.80
2023-08-08T21:02:46.214Z,19.80
2023-08-08T21:05:14.015Z,19.80
2023-08-08T21:07:42.266Z,19.80
2023-08-08T21:10:09.919Z,19.80
2023-08-08T21:12:36.860Z,19.70
2023-08-08T21:15:04.374Z,19.70
2023-08-08T21:17:31.238Z,19.70
2023-08-08T21:19:58.242Z,19.70
2023-08-08T21:22:25.744Z,19.70
2023-08-08T21:24:52.839Z,19.60
2023-08-08T21:27:20.672Z,19.60
2023-08-08T21:29:47.541Z,19.60
2023-08-08T21:32:15.535Z,19.60
2023-08-08T21:34:43.558Z,19.60
2023-08-08T21:37:11.883Z,19.60
2023-08-08T21:39:39.745Z,19.50
2023-08-08T21:42:06.961Z,19.50
2023-08-08T21:44:34.412Z,19.50
2023-08-08T21:47:01.662Z,19.50
2023-08-08T21:49:28.776Z,19.40
2023-08-08T21:51:55.828Z,19.40
2023-08-08T21:54:22.736Z,19.40
2023-08-08T21:56:49.812Z,19.40
2023-08-08T21:59:16.762Z,19.30
2023-08-08T22:01:45.455Z,19.40
2023-08-08T22:04:14.349Z,19.30
2023-08-08T22:06:43.635Z,19.30
2023-08-08T22:09:10.928Z,19.30
2023-08-08T22:11:37.952Z,19.30
2023-08-08T22:14:05.000Z,19.20
2023-08-08T22:16:32.187Z,19.20
2023-08-08T22:18:59.134Z,19.20
2023-08-08T22:21:26.102Z,19.10
2023-08-08T22:23:54.421Z,19.10
2023-08-08T22:26:22.730Z,19.10
2023-08-08T22:28:49.650Z,19.10
2023-08-08T22:31:19.239Z,19.10
2023-08-08T22:33:47.712Z,19.10
2023-08-08T22:36:14.799Z,19.00
2023-08-08T22:38:41.675Z,19.00
2023-08-08T22:41:08.567Z,19.00
2023-08-08T22:43:35.482Z,19.10
2023-08-08T22:46:05.578Z,19.00
2023-08-08T22:48:32.633Z,19.10
2023-08-08T22:51:01.079Z,19.00
2023-08-08T22:53:28.789Z,19.00
2023-08-08T22:55:55.708Z,19.10
2023-08-08T22:58:22.562Z,19.10
2023-08-08T23:00:49.437Z,19.00
2023-08-08T23:03:17.532Z,19.00
2023-08-08T23:05:44.538Z,19.00
2023-08-08T23:08:11.899Z,19.00
2023-08-08T23:10:39.821Z,19.00
2023-08-08T23:13:08.313Z,19.00
2023-08-08T23:15:35.290Z,19.00
2023-08-08T23:18:02.979Z,19.00
2023-08-08T23:20:30.197Z,19.00
2023-08-08T23:22:57.144Z,19.00
2023-08-08T23:25:26.074Z,19.00
2023-08-08T23:27:53.018Z,18.90
2023-08-08T23:30:20.010Z,19.00
2023-08-08T23:32:54.538Z,19.00
2023-08-08T23:35:22.156Z,19.00
2023-08-08T23:37:49.447Z,19.00
2023-08-08T23:40:16.853Z,18.90
2023-08-08T23:42:44.093Z,18.90
2023-08-08T23:45:13.085Z,18.90
2023-08-08T23:47:40.365Z,18.90
2023-08-08T23:50:09.977Z,18.90
2023-08-08T23:52:38.511Z,18.90
2023-08-08T23:55:05.977Z,18.90
2023-08-08T23:57:33.044Z,18.90
2023-08-08T23:59:59.876Z,18.90
